createdAt,value
2022-07-29T00:01:42.474Z,96856.28
2022-07-29T00:04:11.525Z,96855.97
2022-07-29T00:06:39.403Z,96851.66
2022-07-29T00:09:06.880Z,96852.50
2022-07-29T00:11:34.219Z,96857.94
2022-07-29T00:14:01.489Z,96856.94
2022-07-29T00:16:28.792Z,96864.03
2022-07-29T00:18:55.901Z,96852.31
2022-07-29T00:21:24.599Z,96858.25
2022-07-29T00:23:51.639Z,96849.34
2022-07-29T00:26:18.744Z,96844.41
2022-07-29T00:28:45.804Z,96854.78
2022-07-29T00:31:13.448Z,96840.25
2022-07-29T00:33:40.895Z,96852.97
2022-07-29T00:36:08.083Z,96852.81
2022-07-29T00:38:36.924Z,96857.59
2022-07-29T00:41:04.184Z,96853.78
2022-07-29T00:43:31.303Z,96858.41
2022-07-29T00:45:58.915Z,96854.63
2022-07-29T00:48:28.755Z,96857.94
2022-07-29T00:50:57.369Z,96857.09
2022-07-29T00:53:25.543Z,96851.31
2022-07-29T00:55:56.650Z,96849.81
2022-07-29T00:58:24.434Z,96847.19
2022-07-29T01:00:52.004Z,96842.56
2022-07-29T01:03:19.590Z,96845.06
2022-07-29T01:05:50.429Z,96841.59
2022-07-29T01:08:20.041Z,96836.81
2022-07-29T01:10:48.785Z,96837.50
2022-07-29T01:13:18.110Z,96838.63
2022-07-29T01:15:49.110Z,96836.81
2022-07-29T01:18:22.398Z,96836.69
2022-07-29T01:21:09.980Z,96835.63
2022-07-29T01:23:53.898Z,96841.75
2022-07-29T01:26:32.945Z,96843.53
2022-07-29T01:29:08.257Z,96835.78
2022-07-29T01:31:58.776Z,96852.31
2022-07-29T01:34:32.239Z,96841.59
2022-07-29T01:37:08.317Z,96852.63
2022-07-29T01:39:38.199Z,96838.72
2022-07-29T01:42:11.260Z,96846.97
2022-07-29T01:44:46.894Z,96839.19
2022-07-29T01:47:20.699Z,96835.09
2022-07-29T01:49:52.548Z,96830.78
2022-07-29T01:52:24.833Z,96833.41
2022-07-29T01:54:57.185Z,96829.59
2022-07-29T01:57:29.494Z,96821.16
2022-07-29T01:59:59.928Z,96822.59
2022-07-29T02:02:29.117Z,96822.75
2022-07-29T02:04:59.018Z,96816.00
2022-07-29T02:07:29.730Z,96811.34
2022-07-29T02:09:59.032Z,96819.56
2022-07-29T02:12:29.609Z,96811.97
2022-07-29T02:15:01.954Z,96809.84
2022-07-29T02:17:34.190Z,96807.19
2022-07-29T02:20:08.214Z,96807.50
2022-07-29T02:22:38.589Z,96817.28
2022-07-29T02:25:08.028Z,96820.03
2022-07-29T02:27:43.100Z,96810.91
2022-07-29T02:30:15.038Z,96815.00
2022-07-29T02:32:43.715Z,96795.50
2022-07-29T02:35:13.763Z,96802.91
2022-07-29T02:37:42.490Z,96798.19
2022-07-29T02:40:14.600Z,96808.06
2022-07-29T02:42:45.203Z,96810.16
2022-07-29T02:45:13.688Z,96803.41
2022-07-29T02:47:47.019Z,96796.75
2022-07-29T02:50:17.978Z,96799.03
2022-07-29T02:52:48.649Z,96797.81
2022-07-29T02:55:20.469Z,96812.09
2022-07-29T02:57:54.699Z,96806.47
2022-07-29T03:00:27.064Z,96807.72
2022-07-29T03:02:57.260Z,96801.78
2022-07-29T03:05:25.033Z,96810.13
2022-07-29T03:08:03.962Z,96807.63
2022-07-29T03:10:32.361Z,96808.59
2022-07-29T03:13:01.069Z,96811.00
2022-07-29T03:15:30.929Z,96802.31
2022-07-29T03:17:59.499Z,96806.03
2022-07-29T03:20:27.953Z,96798.16
2022-07-29T03:22:55.252Z,96797.34
2022-07-29T03:25:22.538Z,96797.34
2022-07-29T03:27:50.115Z,96799.53
2022-07-29T03:30:21.604Z,96801.06
2022-07-29T03:32:52.632Z,96799.44
2022-07-29T03:35:20.410Z,96804.16
2022-07-29T03:37:47.784Z,96810.25
2022-07-29T03:40:19.358Z,96805.97
2022-07-29T03:42:48.134Z,96801.66
2022-07-29T03:45:19.153Z,96804.28
2022-07-29T03:47:57.066Z,96808.22
2022-07-29T03:50:27.388Z,96820.44
2022-07-29T03:52:54.882Z,96812.31
2022-07-29T03:55:22.260Z,96815.75
2022-07-29T03:57:51.913Z,96822.69
2022-07-29T04:00:19.179Z,96804.28
2022-07-29T04:02:46.713Z,96817.44
2022-07-29T04:05:16.146Z,96816.47
2022-07-29T04:07:45.243Z,96815.81
2022-07-29T04:10:12.776Z,96820.50
2022-07-29T04:12:39.954Z,96824.13
2022-07-29T04:15:08.733Z,96825.19
2022-07-29T04:17:36.006Z,96815.50
2022-07-29T04:20:03.843Z,96813.75
2022-07-29T04:22:32.513Z,96818.88
2022-07-29T04:25:03.717Z,96806.25
2022-07-29T04:27:31.531Z,96811.75
2022-07-29T04:29:58.723Z,96822.84
2022-07-29T04:32:26.810Z,96819.00
2022-07-29T04:34:53.888Z,96816.91
2022-07-29T04:37:21.242Z,96827.81
2022-07-29T04:39:49.986Z,96831.53
2022-07-29T04:42:17.408Z,96826.56
2022-07-29T04:44:44.468Z,96831.28
2022-07-29T04:47:12.780Z,96838.31
2022-07-29T04:49:40.589Z,96828.56
2022-07-29T04:52:08.303Z,96826.19
2022-07-29T04:54:35.395Z,96828.25
2022-07-29T04:57:04.059Z,96836.81
2022-07-29T04:59:31.144Z,96822.34
2022-07-29T05:01:58.595Z,96827.03
2022-07-29T05:04:25.663Z,96830.88
2022-07-29T05:06:52.823Z,96826.00
2022-07-29T05:09:19.893Z,96845.34
2022-07-29T05:11:47.346Z,96832.72
2022-07-29T05:14:17.677Z,96828.66
2022-07-29T05:16:45.321Z,96831.66
2022-07-29T05:19:14.689Z,96830.09
2022-07-29T05:21:43.222Z,96830.47
2022-07-29T05:24:10.858Z,96829.22
2022-07-29T05:26:38.234Z,96838.19
2022-07-29T05:29:06.076Z,96834.81
2022-07-29T05:31:36.175Z,96838.31
2022-07-29T05:34:03.814Z,96849.38
2022-07-29T05:36:30.973Z,96835.59
2022-07-29T05:38:58.717Z,96848.16
2022-07-29T05:41:26.256Z,96844.91
2022-07-29T05:43:53.726Z,96840.84
2022-07-29T05:46:21.367Z,96834.97
2022-07-29T05:48:56.099Z,96848.88
2022-07-29T05:51:24.342Z,96843.00
2022-07-29T05:53:52.303Z,96843.19
2022-07-29T05:56:19.786Z,96843.69
2022-07-29T05:58:47.845Z,96838.47
2022-07-29T06:01:15.391Z,96838.56
2022-07-29T06:03:43.211Z,96849.00
2022-07-29T06:06:12.324Z,96844.91
2022-07-29T06:08:39.884Z,96842.63
2022-07-29T06:11:07.160Z,96842.78
2022-07-29T06:13:34.153Z,96831.59
2022-07-29T06:16:01.487Z,96841.69
2022-07-29T06:18:28.726Z,96837.28
2022-07-29T06:20:56.822Z,96841.09
2022-07-29T06:23:25.727Z,96841.13
2022-07-29T06:25:52.970Z,96843.78
2022-07-29T06:28:19.876Z,96847.44
2022-07-29T06:30:47.231Z,96851.91
2022-07-29T06:33:18.287Z,96850.28
2022-07-29T06:35:45.413Z,96846.34
2022-07-29T06:38:33.728Z,96847.34
2022-07-29T06:41:03.214Z,96851.13
2022-07-29T06:43:31.844Z,96845.19
2022-07-29T06:46:00.890Z,96845.88
2022-07-29T06:48:28.959Z,96849.16
2022-07-29T06:50:56.491Z,96843.75
2022-07-29T06:53:23.993Z,96846.38
2022-07-29T06:55:51.468Z,96852.16
2022-07-29T06:58:19.959Z,96841.38
2022-07-29T07:00:47.998Z,96843.53
2022-07-29T07:03:15.222Z,96842.69
2022-07-29T07:05:42.692Z,96846.19
2022-07-29T07:08:10.187Z,96839.72
2022-07-29T07:10:37.583Z,96847.00
2022-07-29T07:13:06.580Z,96835.72
2022-07-29T07:15:39.188Z,96842.34
2022-07-29T07:18:08.028Z,96851.06
2022-07-29T07:20:35.824Z,96846.41
2022-07-29T07:23:03.307Z,96851.50
2022-07-29T07:25:30.359Z,96838.03
2022-07-29T07:27:58.195Z,96838.53
2022-07-29T07:30:25.504Z,96850.59
2022-07-29T07:32:54.364Z,96847.75
2022-07-29T07:35:21.446Z,96842.22
2022-07-29T07:37:48.813Z,96848.66
2022-07-29T07:40:18.766Z,96851.41
2022-07-29T07:42:46.572Z,96851.19
2022-07-29T07:45:16.177Z,96847.47
2022-07-29T07:47:43.982Z,96847.44
2022-07-29T07:50:18.218Z,96847.53
2022-07-29T07:52:51.366Z,96841.97
2022-07-29T07:55:18.850Z,96852.59
2022-07-29T07:57:46.335Z,96847.91
2022-07-29T08:00:15.301Z,96842.72
2022-07-29T08:02:42.781Z,96830.56
2022-07-29T08:05:12.791Z,96845.69
2022-07-29T08:07:41.593Z,96847.69
2022-07-29T08:10:09.337Z,96849.94
2022-07-29T08:12:36.234Z,96851.69
2022-07-29T08:15:05.611Z,96845.63
2022-07-29T08:17:35.519Z,96849.34
2022-07-29T08:20:03.051Z,96850.41
2022-07-29T08:22:30.378Z,96853.19
2022-07-29T08:24:59.127Z,96851.84
2022-07-29T08:27:43.094Z,96850.56
2022-07-29T08:30:11.810Z,96847.94
2022-07-29T08:32:55.533Z,96851.13
2022-07-29T08:35:25.033Z,96859.94
2022-07-29T08:37:53.305Z,96862.44
2022-07-29T08:40:32.217Z,96863.72
2022-07-29T08:42:59.905Z,96858.03
2022-07-29T08:45:29.636Z,96865.69
2022-07-29T08:47:57.091Z,96865.88
2022-07-29T08:50:24.531Z,96874.28
2022-07-29T08:52:56.554Z,96867.97
2022-07-29T08:55:28.360Z,96872.66
2022-07-29T08:57:57.365Z,96869.06
2022-07-29T09:00:26.331Z,96875.72
2022-07-29T09:02:58.376Z,96870.56
2022-07-29T09:05:27.075Z,96867.84
2022-07-29T09:07:54.378Z,96878.66
2022-07-29T09:10:21.817Z,96879.13
2022-07-29T09:12:50.349Z,96881.59
2022-07-29T09:15:19.197Z,96870.97
2022-07-29T09:17:48.255Z,96886.53
2022-07-29T09:20:17.598Z,96882.59
2022-07-29T09:22:44.864Z,96879.69
2022-07-29T09:25:14.642Z,96878.84
2022-07-29T09:27:41.737Z,96876.38
2022-07-29T09:30:15.315Z,96878.81
2022-07-29T09:32:56.858Z,96885.78
2022-07-29T09:35:26.205Z,96891.47
2022-07-29T09:37:53.757Z,96898.44
2022-07-29T09:40:22.803Z,96877.22
2022-07-29T09:42:50.319Z,96886.66
2022-07-29T09:45:30.395Z,96879.50
2022-07-29T09:47:58.310Z,96879.13
2022-07-29T09:50:36.703Z,96874.19
2022-07-29T09:53:03.878Z,96876.66
2022-07-29T09:55:31.401Z,96880.66
2022-07-29T09:58:17.449Z,96879.88
2022-07-29T10:00:46.802Z,96877.59
2022-07-29T10:03:14.094Z,96873.53
2022-07-29T10:05:41.621Z,96881.44
2022-07-29T10:08:09.937Z,96882.75
2022-07-29T10:10:39.010Z,96881.50
2022-07-29T10:13:13.448Z,96881.13
2022-07-29T10:15:43.855Z,96884.44
2022-07-29T10:18:13.693Z,96883.97
2022-07-29T10:20:41.457Z,96875.13
2022-07-29T10:23:09.815Z,96876.75
2022-07-29T10:25:36.937Z,96879.81
2022-07-29T10:28:04.518Z,96873.91
2022-07-29T10:30:32.508Z,96874.47
2022-07-29T10:33:12.410Z,96873.66
2022-07-29T10:36:01.049Z,96876.31
2022-07-29T10:38:49.858Z,96867.53
2022-07-29T10:41:46.099Z,96866.97
2022-07-29T10:44:19.365Z,96858.97
2022-07-29T10:46:47.944Z,96856.94
2022-07-29T10:49:17.109Z,96851.41
2022-07-29T10:52:11.429Z,96849.75
2022-07-29T10:54:46.477Z,96851.38
2022-07-29T10:57:16.182Z,96848.72
2022-07-29T10:59:45.132Z,96845.28
2022-07-29T11:02:44.845Z,96851.75
2022-07-29T11:05:14.536Z,96845.00
2022-07-29T11:08:26.338Z,96846.50
2022-07-29T11:11:36.081Z,96839.22
2022-07-29T11:14:04.978Z,96844.13
2022-07-29T11:16:59.677Z,96847.72
2022-07-29T11:19:30.695Z,96849.59
2022-07-29T11:21:58.361Z,96828.31
2022-07-29T11:24:29.355Z,96846.78
2022-07-29T11:27:13.383Z,96837.22
2022-07-29T11:29:49.795Z,96844.22
2022-07-29T11:32:23.449Z,96840.38
2022-07-29T11:35:17.354Z,96835.47
2022-07-29T11:37:52.652Z,96838.59
2022-07-29T11:40:24.702Z,96842.28
2022-07-29T11:42:52.482Z,96837.38
2022-07-29T11:45:42.818Z,96834.72
2022-07-29T11:48:29.566Z,96826.97
2022-07-29T11:51:00.040Z,96838.47
2022-07-29T11:53:28.765Z,96826.41
2022-07-29T11:55:59.889Z,96826.38
2022-07-29T11:58:28.729Z,96836.19
2022-07-29T12:00:56.525Z,96827.16
2022-07-29T12:03:35.478Z,96831.88
2022-07-29T12:06:04.749Z,96822.25
2022-07-29T12:08:41.579Z,96840.31
2022-07-29T12:11:16.829Z,96832.50
2022-07-29T12:13:43.716Z,96828.06
2022-07-29T12:16:14.734Z,96827.44
2022-07-29T12:18:41.885Z,96827.66
2022-07-29T12:21:08.992Z,96823.72
2022-07-29T12:23:36.350Z,96826.41
2022-07-29T12:26:07.577Z,96824.53
2022-07-29T12:28:40.635Z,96826.00
2022-07-29T12:31:15.023Z,96826.59
2022-07-29T12:34:02.181Z,96818.81
2022-07-29T12:36:29.337Z,96832.78
2022-07-29T12:38:56.520Z,96821.06
2022-07-29T12:41:23.690Z,96821.91
2022-07-29T12:43:56.308Z,96816.97
2022-07-29T12:46:23.830Z,96818.44
2022-07-29T12:48:53.032Z,96814.75
2022-07-29T12:51:30.757Z,96802.00
2022-07-29T12:54:06.678Z,96812.28
2022-07-29T12:56:42.732Z,96809.59
2022-07-29T12:59:19.823Z,96806.31
2022-07-29T13:01:48.319Z,96809.19
2022-07-29T13:04:25.828Z,96795.44
2022-07-29T13:07:00.216Z,96790.28
2022-07-29T13:09:38.922Z,96794.63
2022-07-29T13:12:08.491Z,96795.63
2022-07-29T13:14:39.219Z,96793.16
2022-07-29T13:17:08.978Z,96800.56
2022-07-29T13:19:39.031Z,96800.56
2022-07-29T13:22:06.249Z,96797.28
2022-07-29T13:24:33.461Z,96802.19
2022-07-29T13:27:01.276Z,96794.59
2022-07-29T13:29:33.516Z,96781.06
2022-07-29T13:32:02.197Z,96796.47
2022-07-29T13:34:29.628Z,96782.09
2022-07-29T13:36:56.756Z,96780.03
2022-07-29T13:39:23.757Z,96771.81
2022-07-29T13:41:51.151Z,96763.19
2022-07-29T13:44:18.400Z,96771.19
2022-07-29T13:46:45.614Z,96771.59
2022-07-29T13:49:14.328Z,96774.47
2022-07-29T13:51:41.610Z,96758.84
2022-07-29T13:54:08.803Z,96763.97
2022-07-29T13:56:35.890Z,96762.78
2022-07-29T13:59:03.131Z,96750.81
2022-07-29T14:01:30.153Z,96761.09
2022-07-29T14:03:57.082Z,96756.00
2022-07-29T14:06:26.246Z,96752.06
2022-07-29T14:08:53.431Z,96749.81
2022-07-29T14:11:21.567Z,96744.06
2022-07-29T14:13:48.799Z,96741.59
2022-07-29T14:16:16.242Z,96736.25
2022-07-29T14:18:43.204Z,96737.25
2022-07-29T14:21:10.390Z,96739.44
2022-07-29T14:23:39.041Z,96734.88
2022-07-29T14:26:09.495Z,96741.59
2022-07-29T14:28:43.184Z,96732.13
2022-07-29T14:31:10.234Z,96731.75
2022-07-29T14:33:38.334Z,96734.41
2022-07-29T14:36:05.876Z,96728.44
2022-07-29T14:38:33.467Z,96726.78
2022-07-29T14:41:02.292Z,96733.38
2022-07-29T14:43:30.736Z,96729.06
2022-07-29T14:46:02.087Z,96736.47
2022-07-29T14:48:32.308Z,96726.38
2022-07-29T14:51:04.545Z,96722.25
2022-07-29T14:53:32.067Z,96724.13
2022-07-29T14:56:15.109Z,96729.28
2022-07-29T14:58:51.971Z,96725.56
2022-07-29T15:01:19.412Z,96717.53
2022-07-29T15:03:46.622Z,96722.88
2022-07-29T15:06:13.642Z,96716.88
2022-07-29T15:08:40.690Z,96714.41
2022-07-29T15:11:07.734Z,96698.38
2022-07-29T15:13:35.248Z,96697.38
2022-07-29T15:16:04.231Z,96710.31
2022-07-29T15:18:31.342Z,96691.00
2022-07-29T15:20:59.214Z,96695.28
2022-07-29T15:23:26.692Z,96688.88
2022-07-29T15:25:53.920Z,96686.41
2022-07-29T15:28:21.626Z,96681.47
2022-07-29T15:30:49.634Z,96684.47
2022-07-29T15:33:18.968Z,96674.81
2022-07-29T15:35:46.403Z,96680.34
2022-07-29T15:38:14.242Z,96675.56
2022-07-29T15:40:41.792Z,96675.56
2022-07-29T15:43:09.301Z,96654.97
2022-07-29T15:45:40.182Z,96662.75
2022-07-29T15:48:10.288Z,96684.16
2022-07-29T15:50:43.687Z,96678.22
2022-07-29T15:53:14.699Z,96673.91
2022-07-29T15:55:42.185Z,96667.78
2022-07-29T15:58:11.770Z,96667.56
2022-07-29T16:00:39.274Z,96665.31
2022-07-29T16:03:06.286Z,96661.63
2022-07-29T16:05:33.292Z,96658.34
2022-07-29T16:08:02.567Z,96648.31
2022-07-29T16:10:29.460Z,96654.84
2022-07-29T16:12:56.793Z,96653.00
2022-07-29T16:15:24.627Z,96656.84
2022-07-29T16:17:51.656Z,96664.66
2022-07-29T16:20:18.843Z,96652.59
2022-07-29T16:22:47.541Z,96652.88
2022-07-29T16:25:16.855Z,96650.25
2022-07-29T16:27:44.204Z,96648.38
2022-07-29T16:30:12.067Z,96644.28
2022-07-29T16:32:39.537Z,96644.50
2022-07-29T16:35:07.694Z,96642.03
2022-07-29T16:37:35.209Z,96636.47
2022-07-29T16:40:02.365Z,96640.41
2022-07-29T16:42:45.995Z,96632.81
2022-07-29T16:45:13.889Z,96637.34
2022-07-29T16:47:41.038Z,96635.91
2022-07-29T16:50:10.724Z,96626.44
2022-07-29T16:52:37.952Z,96638.38
2022-07-29T16:55:06.134Z,96629.19
2022-07-29T16:57:35.254Z,96623.63
2022-07-29T17:00:03.035Z,96625.72
2022-07-29T17:02:30.916Z,96624.91
2022-07-29T17:04:58.427Z,96616.47
2022-07-29T17:07:25.570Z,96632.75
2022-07-29T17:09:55.666Z,96625.16
2022-07-29T17:12:24.584Z,96624.75
2022-07-29T17:14:54.342Z,96626.44
2022-07-29T17:17:39.298Z,96623.56
2022-07-29T17:20:09.455Z,96625.28
2022-07-29T17:22:37.430Z,96616.66
2022-07-29T17:25:05.869Z,96632.53
2022-07-29T17:27:33.008Z,96617.31
2022-07-29T17:30:01.839Z,96626.22
2022-07-29T17:32:28.828Z,96630.94
2022-07-29T17:34:55.849Z,96622.38
2022-07-29T17:37:22.920Z,96621.38
2022-07-29T17:39:55.256Z,96630.19
2022-07-29T17:42:25.657Z,96637.16
2022-07-29T17:44:52.674Z,96635.13
2022-07-29T17:47:21.365Z,96633.28
2022-07-29T17:49:48.453Z,96626.50
2022-07-29T17:52:15.868Z,96635.72
2022-07-29T17:54:43.077Z,96618.91
2022-07-29T17:57:10.632Z,96619.88
2022-07-29T17:59:38.407Z,96632.78
2022-07-29T18:02:05.641Z,96641.75
2022-07-29T18:04:34.475Z,96635.22
2022-07-29T18:07:02.135Z,96635.81
2022-07-29T18:09:29.840Z,96622.47
2022-07-29T18:11:57.110Z,96627.56
2022-07-29T18:14:24.084Z,96622.84
2022-07-29T18:16:53.591Z,96626.25
2022-07-29T18:19:20.810Z,96619.56
2022-07-29T18:21:54.651Z,96626.44
2022-07-29T18:24:22.820Z,96631.75
2022-07-29T18:26:49.755Z,96627.44
2022-07-29T18:29:16.834Z,96630.88
2022-07-29T18:31:44.408Z,96625.94
2022-07-29T18:34:11.690Z,96622.25
2022-07-29T18:36:38.629Z,96618.50
2022-07-29T18:39:07.296Z,96622.94
2022-07-29T18:41:36.030Z,96610.97
2022-07-29T18:44:17.875Z,96619.91
2022-07-29T18:46:55.478Z,96623.59
2022-07-29T18:49:23.163Z,96632.16
2022-07-29T18:51:50.789Z,96627.78
2022-07-29T18:54:19.568Z,96644.13
2022-07-29T18:56:46.963Z,96644.94
2022-07-29T18:59:14.821Z,96655.06
2022-07-29T19:01:42.349Z,96654.03
2022-07-29T19:04:10.403Z,96658.28
2022-07-29T19:06:37.936Z,96665.41
2022-07-29T19:09:05.111Z,96674.47
2022-07-29T19:11:34.272Z,96679.38
2022-07-29T19:14:01.798Z,96678.75
2022-07-29T19:16:29.364Z,96676.50
2022-07-29T19:18:56.664Z,96679.25
2022-07-29T19:21:24.318Z,96675.19
2022-07-29T19:24:02.148Z,96679.34
2022-07-29T19:26:37.286Z,96684.44
2022-07-29T19:29:04.901Z,96664.59
2022-07-29T19:31:32.155Z,96676.69
2022-07-29T19:33:59.414Z,96693.03
2022-07-29T19:36:26.602Z,96699.94
2022-07-29T19:38:53.844Z,96697.88
2022-07-29T19:41:20.909Z,96715.09
2022-07-29T19:43:52.852Z,96714.72
2022-07-29T19:46:20.723Z,96700.66
2022-07-29T19:48:47.957Z,96706.78
2022-07-29T19:51:15.052Z,96713.38
2022-07-29T19:53:42.566Z,96714.09
2022-07-29T19:56:10.048Z,96714.66
2022-07-29T19:58:37.272Z,96720.75
2022-07-29T20:01:10.335Z,96728.47
2022-07-29T20:03:42.189Z,96744.19
2022-07-29T20:06:09.779Z,96760.34
2022-07-29T20:08:36.910Z,96768.91
2022-07-29T20:11:03.903Z,96789.34
2022-07-29T20:13:31.666Z,96786.16
2022-07-29T20:15:58.927Z,96804.31
2022-07-29T20:18:27.646Z,96811.94
2022-07-29T20:20:54.618Z,96816.97
2022-07-29T20:23:22.078Z,96824.31
2022-07-29T20:25:49.526Z,96827.50
2022-07-29T20:28:16.519Z,96824.34
2022-07-29T20:30:43.914Z,96839.31
2022-07-29T20:33:15.234Z,96832.38
2022-07-29T20:35:44.500Z,96837.69
2022-07-29T20:38:15.138Z,96834.75
2022-07-29T20:40:48.097Z,96838.59
2022-07-29T20:43:15.675Z,96849.06
2022-07-29T20:45:43.208Z,96849.75
2022-07-29T20:48:11.608Z,96839.03
2022-07-29T20:50:38.922Z,96845.13
2022-07-29T20:53:09.605Z,96849.44
2022-07-29T20:55:37.277Z,96840.66
2022-07-29T20:58:04.648Z,96841.66
2022-07-29T21:00:31.856Z,96832.41
2022-07-29T21:03:01.506Z,96838.50
2022-07-29T21:05:28.961Z,96827.09
2022-07-29T21:07:58.206Z,96821.16
2022-07-29T21:10:27.168Z,96804.66
2022-07-29T21:12:54.637Z,96785.00
2022-07-29T21:15:23.377Z,96778.91
2022-07-29T21:17:51.236Z,96777.41
2022-07-29T21:20:19.991Z,96757.59
2022-07-29T21:22:47.860Z,96758.09
2022-07-29T21:25:15.536Z,96747.00
2022-07-29T21:27:44.964Z,96749.50
2022-07-29T21:30:12.045Z,96738.97
2022-07-29T21:32:39.238Z,96750.88
2022-07-29T21:35:15.139Z,96740.78
2022-07-29T21:37:54.509Z,96739.47
2022-07-29T21:40:22.673Z,96724.09
2022-07-29T21:42:52.451Z,96723.28
2022-07-29T21:45:21.219Z,96715.88
2022-07-29T21:47:48.410Z,96715.69
2022-07-29T21:50:15.636Z,96716.53
2022-07-29T21:52:43.048Z,96723.97
2022-07-29T21:55:11.451Z,96740.16
2022-07-29T21:57:38.735Z,96739.50
2022-07-29T22:00:12.057Z,96716.69
2022-07-29T22:02:39.217Z,96730.06
2022-07-29T22:05:07.110Z,96718.69
2022-07-29T22:07:55.638Z,96711.91
2022-07-29T22:10:21.562Z,96721.66
2022-07-29T22:12:50.736Z,96723.97
2022-07-29T22:15:19.619Z,96723.81
2022-07-29T22:17:46.885Z,96716.38
2022-07-29T22:20:14.636Z,96719.84
2022-07-29T22:22:42.004Z,96717.03
2022-07-29T22:25:10.609Z,96714.72
2022-07-29T22:27:37.841Z,96717.16
2022-07-29T22:30:06.282Z,96712.03
2022-07-29T22:32:35.696Z,96717.47
2022-07-29T22:35:04.237Z,96711.53
2022-07-29T22:37:31.676Z,96692.25
2022-07-29T22:39:59.082Z,96693.38
2022-07-29T22:42:26.173Z,96688.94
2022-07-29T22:44:53.236Z,96682.50
2022-07-29T22:47:46.468Z,96677.38
2022-07-29T22:50:10.950Z,96676.91
2022-07-29T22:52:38.310Z,96667.47
2022-07-29T22:55:06.462Z,96679.88
2022-07-29T22:57:33.610Z,96672.59
2022-07-29T23:00:00.889Z,96663.66
2022-07-29T23:02:28.562Z,96660.88
2022-07-29T23:04:55.864Z,96655.91
2022-07-29T23:07:25.327Z,96651.44
2022-07-29T23:09:52.883Z,96651.78
2022-07-29T23:12:20.083Z,96650.13
2022-07-29T23:14:47.576Z,96655.72
2022-07-29T23:17:15.024Z,96647.16
2022-07-29T23:19:42.905Z,96659.53
2022-07-29T23:22:11.982Z,96662.66
2022-07-29T23:24:41.243Z,96657.22
2022-07-29T23:27:08.346Z,96662.81
2022-07-29T23:29:36.892Z,96659.34
2022-07-29T23:32:04.863Z,96656.69
2022-07-29T23:34:32.939Z,96643.00
2022-07-29T23:37:00.624Z,96642.19
2022-07-29T23:39:28.827Z,96643.66
2022-07-29T23:41:57.713Z,96649.91
2022-07-29T23:44:25.042Z,96652.66
2022-07-29T23:46:52.021Z,96643.56
2022-07-29T23:49:19.564Z,96644.41
2022-07-29T23:51:47.054Z,96645.88
2022-07-29T23:54:14.559Z,96641.59
2022-07-29T23:56:42.090Z,96650.19
2022-07-29T23:59:10.671Z,96644.25
